sensor_id;sensor_type;location;lat;lon;timestamp;P1;durP1;ratioP1;P2;durP2;ratioP2
17985;SDS011;9118;48.122;11.546;2023-07-16T00:01:53;9.93;;;6.90;;
17985;SDS011;9118;48.122;11.546;2023-07-16T00:04:20;8.77;;;6.47;;
17985;SDS011;9118;48.122;11.546;2023-07-16T00:06:49;8.70;;;6.78;;
17985;SDS011;9118;48.122;11.546;2023-07-16T00:09:16;9.48;;;7.05;;
17985;SDS011;9118;48.122;11.546;2023-07-16T00:11:43;9.13;;;6.85;;
17985;SDS011;9118;48.122;11.546;2023-07-16T00:14:11;8.93;;;7.40;;
17985;SDS011;9118;48.122;11.546;2023-07-16T00:16:37;10.80;;;8.13;;
17985;SDS011;9118;48.122;11.546;2023-07-16T00:19:04;9.15;;;6.72;;
17985;SDS011;9118;48.122;11.546;2023-07-16T00:21:31;7.80;;;7.00;;
17985;SDS011;9118;48.122;11.546;2023-07-16T00:24:00;7.63;;;6.82;;
17985;SDS011;9118;48.122;11.546;2023-07-16T00:26:27;8.20;;;7.40;;
17985;SDS011;9118;48.122;11.546;2023-07-16T00:28:54;8.00;;;7.03;;
17985;SDS011;9118;48.122;11.546;2023-07-16T00:31:21;10.13;;;7.13;;
17985;SDS011;9118;48.122;11.546;2023-07-16T00:33:47;9.93;;;6.90;;
17985;SDS011;9118;48.122;11.546;2023-07-16T00:36:14;7.90;;;7.10;;
17985;SDS011;9118;48.122;11.546;2023-07-16T00:38:42;9.48;;;6.63;;
17985;SDS011;9118;48.122;11.546;2023-07-16T00:41:12;7.50;;;6.68;;
17985;SDS011;9118;48.122;11.546;2023-07-16T00:43:39;12.23;;;6.63;;
17985;SDS011;9118;48.122;11.546;2023-07-16T00:46:06;7.65;;;6.88;;
17985;SDS011;9118;48.122;11.546;2023-07-16T00:48:33;9.20;;;6.90;;
17985;SDS011;9118;48.122;11.546;2023-07-16T00:51:01;8.52;;;6.93;;
17985;SDS011;9118;48.122;11.546;2023-07-16T00:53:29;8.48;;;6.78;;
17985;SDS011;9118;48.122;11.546;2023-07-16T00:55:56;8.35;;;6.80;;
17985;SDS011;9118;48.122;11.546;2023-07-16T00:58:25;9.00;;;6.68;;
17985;SDS011;9118;48.122;11.546;2023-07-16T01:00:52;10.13;;;6.88;;
17985;SDS011;9118;48.122;11.546;2023-07-16T01:03:19;10.25;;;7.13;;
17985;SDS011;9118;48.122;11.546;2023-07-16T01:05:47;7.50;;;6.80;;
17985;SDS011;9118;48.122;11.546;2023-07-16T01:08:20;12.77;;;7.85;;
17985;SDS011;9118;48.122;11.546;2023-07-16T01:11:01;7.43;;;6.68;;
17985;SDS011;9118;48.122;11.546;2023-07-16T01:13:30;9.05;;;7.60;;
17985;SDS011;9118;48.122;11.546;2023-07-16T01:15:57;8.63;;;7.20;;
17985;SDS011;9118;48.122;11.546;2023-07-16T01:18:24;8.27;;;7.28;;
17985;SDS011;9118;48.122;11.546;2023-07-16T01:20:51;12.02;;;7.82;;
17985;SDS011;9118;48.122;11.546;2023-07-16T01:23:25;9.00;;;7.68;;
17985;SDS011;9118;48.122;11.546;2023-07-16T01:26:04;8.48;;;7.53;;
17985;SDS011;9118;48.122;11.546;2023-07-16T01:28:48;9.88;;;7.90;;
17985;SDS011;9118;48.122;11.546;2023-07-16T01:31:33;9.77;;;7.63;;
17985;SDS011;9118;48.122;11.546;2023-07-16T01:34:00;12.90;;;8.13;;
17985;SDS011;9118;48.122;11.546;2023-07-16T01:36:31;9.55;;;7.78;;
17985;SDS011;9118;48.122;11.546;2023-07-16T01:38:58;9.77;;;7.85;;
17985;SDS011;9118;48.122;11.546;2023-07-16T01:41:25;13.85;;;8.13;;
17985;SDS011;9118;48.122;11.546;2023-07-16T01:43:52;15.60;;;8.40;;
17985;SDS011;9118;48.122;11.546;2023-07-16T01:46:21;11.65;;;7.97;;
17985;SDS011;9118;48.122;11.546;2023-07-16T01:48:48;9.35;;;7.63;;
17985;SDS011;9118;48.122;11.546;2023-07-16T01:51:14;9.35;;;8.13;;
17985;SDS011;9118;48.122;11.546;2023-07-16T01:53:41;11.25;;;8.02;;
17985;SDS011;9118;48.122;11.546;2023-07-16T01:56:09;10.70;;;8.60;;
17985;SDS011;9118;48.122;11.546;2023-07-16T01:58:36;12.25;;;7.97;;
17985;SDS011;9118;48.122;11.546;2023-07-16T02:01:03;8.52;;;7.50;;
17985;SDS011;9118;48.122;11.546;2023-07-16T02:03:32;12.73;;;8.63;;
17985;SDS011;9118;48.122;11.546;2023-07-16T02:05:58;10.43;;;8.13;;
17985;SDS011;9118;48.122;11.546;2023-07-16T02:08:25;11.02;;;8.40;;
17985;SDS011;9118;48.122;11.546;2023-07-16T02:10:53;8.68;;;7.68;;
17985;SDS011;9118;48.122;11.546;2023-07-16T02:13:20;12.53;;;8.20;;
17985;SDS011;9118;48.122;11.546;2023-07-16T02:15:47;9.45;;;7.43;;
17985;SDS011;9118;48.122;11.546;2023-07-16T02:18:14;11.93;;;8.60;;
17985;SDS011;9118;48.122;11.546;2023-07-16T02:20:42;9.07;;;8.02;;
17985;SDS011;9118;48.122;11.546;2023-07-16T02:23:11;9.60;;;8.68;;
17985;SDS011;9118;48.122;11.546;2023-07-16T02:25:38;9.80;;;7.78;;
17985;SDS011;9118;48.122;11.546;2023-07-16T02:28:04;9.80;;;8.85;;
17985;SDS011;9118;48.122;11.546;2023-07-16T02:30:31;9.60;;;8.02;;
17985;SDS011;9118;48.122;11.546;2023-07-16T02:32:59;11.32;;;7.82;;
17985;SDS011;9118;48.122;11.546;2023-07-16T02:35:26;9.82;;;7.63;;
17985;SDS011;9118;48.122;11.546;2023-07-16T02:37:54;9.90;;;8.68;;
17985;SDS011;9118;48.122;11.546;2023-07-16T02:40:21;8.63;;;7.75;;
17985;SDS011;9118;48.122;11.546;2023-07-16T02:42:48;8.60;;;7.10;;
17985;SDS011;9118;48.122;11.546;2023-07-16T02:45:15;8.82;;;7.40;;
17985;SDS011;9118;48.122;11.546;2023-07-16T02:47:42;11.50;;;8.70;;
17985;SDS011;9118;48.122;11.546;2023-07-16T02:50:10;13.70;;;9.00;;
17985;SDS011;9118;48.122;11.546;2023-07-16T02:52:37;12.02;;;7.97;;
17985;SDS011;9118;48.122;11.546;2023-07-16T02:55:06;9.85;;;8.23;;
17985;SDS011;9118;48.122;11.546;2023-07-16T02:57:33;16.42;;;9.65;;
17985;SDS011;9118;48.122;11.546;2023-07-16T03:00:00;10.23;;;7.22;;
17985;SDS011;9118;48.122;11.546;2023-07-16T03:02:27;7.47;;;6.57;;
17985;SDS011;9118;48.122;11.546;2023-07-16T03:04:54;9.30;;;6.60;;
17985;SDS011;9118;48.122;11.546;2023-07-16T03:07:21;7.00;;;6.27;;
17985;SDS011;9118;48.122;11.546;2023-07-16T03:09:48;7.75;;;6.07;;
17985;SDS011;9118;48.122;11.546;2023-07-16T03:12:17;6.30;;;5.70;;
17985;SDS011;9118;48.122;11.546;2023-07-16T03:14:43;8.95;;;6.30;;
17985;SDS011;9118;48.122;11.546;2023-07-16T03:17:11;7.63;;;6.00;;
17985;SDS011;9118;48.122;11.546;2023-07-16T03:19:38;6.63;;;5.63;;
17985;SDS011;9118;48.122;11.546;2023-07-16T03:22:05;5.38;;;4.88;;
17985;SDS011;9118;48.122;11.546;2023-07-16T03:24:32;4.70;;;4.30;;
17985;SDS011;9118;48.122;11.546;2023-07-16T03:26:59;4.97;;;4.50;;
17985;SDS011;9118;48.122;11.546;2023-07-16T03:29:27;4.20;;;3.90;;
17985;SDS011;9118;48.122;11.546;2023-07-16T03:31:56;5.55;;;4.78;;
17985;SDS011;9118;48.122;11.546;2023-07-16T03:34:23;4.57;;;3.85;;
17985;SDS011;9118;48.122;11.546;2023-07-16T03:36:50;4.95;;;4.35;;
17985;SDS011;9118;48.122;11.546;2023-07-16T03:39:17;6.53;;;4.53;;
17985;SDS011;9118;48.122;11.546;2023-07-16T03:41:44;4.90;;;4.50;;
17985;SDS011;9118;48.122;11.546;2023-07-16T03:44:11;5.88;;;4.45;;
17985;SDS011;9118;48.122;11.546;2023-07-16T03:46:40;5.53;;;4.30;;
17985;SDS011;9118;48.122;11.546;2023-07-16T03:49:07;5.20;;;4.70;;
17985;SDS011;9118;48.122;11.546;2023-07-16T03:51:34;5.40;;;4.37;;
17985;SDS011;9118;48.122;11.546;2023-07-16T03:54:01;4.65;;;3.95;;
17985;SDS011;9118;48.122;11.546;2023-07-16T03:56:28;4.47;;;4.07;;
17985;SDS011;9118;48.122;11.546;2023-07-16T03:58:55;4.33;;;3.93;;
17985;SDS011;9118;48.122;11.546;2023-07-16T04:01:22;5.25;;;4.28;;
17985;SDS011;9118;48.122;11.546;2023-07-16T04:03:50;4.38;;;3.97;;
17985;SDS011;9118;48.122;11.546;2023-07-16T04:06:19;4.20;;;3.80;;
17985;SDS011;9118;48.122;11.546;2023-07-16T04:08:46;5.78;;;3.90;;
17985;SDS011;9118;48.122;11.546;2023-07-16T04:11:12;4.10;;;3.70;;
17985;SDS011;9118;48.122;11.546;2023-07-16T04:13:39;5.38;;;3.90;;
17985;SDS011;9118;48.122;11.546;2023-07-16T04:16:06;4.93;;;3.70;;
17985;SDS011;9118;48.122;11.546;2023-07-16T04:18:33;7.80;;;4.13;;
17985;SDS011;9118;48.122;11.546;2023-07-16T04:21:02;5.35;;;4.40;;
17985;SDS011;9118;48.122;11.546;2023-07-16T04:23:31;6.63;;;4.80;;
17985;SDS011;9118;48.122;11.546;2023-07-16T04:25:58;4.65;;;3.75;;
17985;SDS011;9118;48.122;11.546;2023-07-16T04:28:25;7.00;;;3.53;;
17985;SDS011;9118;48.122;11.546;2023-07-16T04:30:52;5.28;;;3.80;;
17985;SDS011;9118;48.122;11.546;2023-07-16T04:33:19;6.43;;;3.53;;
17985;SDS011;9118;48.122;11.546;2023-07-16T04:35:46;4.45;;;3.10;;
17985;SDS011;9118;48.122;11.546;2023-07-16T04:38:14;3.85;;;3.30;;
17985;SDS011;9118;48.122;11.546;2023-07-16T04:40:41;5.35;;;4.00;;
17985;SDS011;9118;48.122;11.546;2023-07-16T04:43:09;9.87;;;5.63;;
17985;SDS011;9118;48.122;11.546;2023-07-16T04:45:36;7.20;;;4.85;;
17985;SDS011;9118;48.122;11.546;2023-07-16T04:48:04;4.72;;;3.90;;
17985;SDS011;9118;48.122;11.546;2023-07-16T04:50:31;5.20;;;3.80;;
17985;SDS011;9118;48.122;11.546;2023-07-16T04:52:58;3.63;;;3.33;;
17985;SDS011;9118;48.122;11.546;2023-07-16T04:55:27;3.63;;;3.33;;
17985;SDS011;9118;48.122;11.546;2023-07-16T04:57:54;4.70;;;3.43;;
17985;SDS011;9118;48.122;11.546;2023-07-16T05:00:22;4.70;;;3.50;;
17985;SDS011;9118;48.122;11.546;2023-07-16T05:02:49;3.75;;;3.45;;
17985;SDS011;9118;48.122;11.546;2023-07-16T05:05:16;4.38;;;3.58;;
17985;SDS011;9118;48.122;11.546;2023-07-16T05:07:43;4.05;;;3.75;;
17985;SDS011;9118;48.122;11.546;2023-07-16T05:10:11;4.18;;;3.72;;
17985;SDS011;9118;48.122;11.546;2023-07-16T05:12:39;5.10;;;4.00;;
17985;SDS011;9118;48.122;11.546;2023-07-16T05:15:07;5.18;;;3.75;;
17985;SDS011;9118;48.122;11.546;2023-07-16T05:17:34;4.13;;;3.55;;
17985;SDS011;9118;48.122;11.546;2023-07-16T05:20:01;5.60;;;4.20;;
17985;SDS011;9118;48.122;11.546;2023-07-16T05:22:29;4.35;;;3.95;;
17985;SDS011;9118;48.122;11.546;2023-07-16T05:24:56;3.60;;;3.30;;
17985;SDS011;9118;48.122;11.546;2023-07-16T05:27:23;5.82;;;4.03;;
17985;SDS011;9118;48.122;11.546;2023-07-16T05:29:51;5.45;;;4.32;;
17985;SDS011;9118;48.122;11.546;2023-07-16T05:32:18;3.70;;;3.40;;
17985;SDS011;9118;48.122;11.546;2023-07-16T05:34:45;4.57;;;3.53;;
17985;SDS011;9118;48.122;11.546;2023-07-16T05:37:12;3.78;;;3.47;;
17985;SDS011;9118;48.122;11.546;2023-07-16T05:39:39;3.80;;;3.25;;
17985;SDS011;9118;48.122;11.546;2023-07-16T05:42:06;3.40;;;3.13;;
17985;SDS011;9118;48.122;11.546;2023-07-16T05:44:33;3.13;;;2.90;;
17985;SDS011;9118;48.122;11.546;2023-07-16T05:47:01;3.20;;;2.90;;
17985;SDS011;9118;48.122;11.546;2023-07-16T05:49:29;3.25;;;2.95;;
17985;SDS011;9118;48.122;11.546;2023-07-16T05:51:56;3.07;;;2.87;;
17985;SDS011;9118;48.122;11.546;2023-07-16T05:54:24;3.25;;;2.95;;
17985;SDS011;9118;48.122;11.546;2023-07-16T05:56:50;3.22;;;2.92;;
17985;SDS011;9118;48.122;11.546;2023-07-16T05:59:18;3.38;;;3.10;;
17985;SDS011;9118;48.122;11.546;2023-07-16T06:01:45;4.10;;;2.97;;
17985;SDS011;9118;48.122;11.546;2023-07-16T06:04:14;3.38;;;3.08;;
17985;SDS011;9118;48.122;11.546;2023-07-16T06:06:40;4.43;;;3.22;;
17985;SDS011;9118;48.122;11.546;2023-07-16T06:09:07;4.22;;;3.70;;
17985;SDS011;9118;48.122;11.546;2023-07-16T06:11:34;4.45;;;3.72;;
17985;SDS011;9118;48.122;11.546;2023-07-16T06:14:01;7.57;;;3.90;;
17985;SDS011;9118;48.122;11.546;2023-07-16T06:16:30;4.17;;;3.77;;
17985;SDS011;9118;48.122;11.546;2023-07-16T06:18:57;4.43;;;3.88;;
17985;SDS011;9118;48.122;11.546;2023-07-16T06:21:26;4.22;;;3.83;;
17985;SDS011;9118;48.122;11.546;2023-07-16T06:23:53;4.85;;;4.13;;
17985;SDS011;9118;48.122;11.546;2023-07-16T06:26:20;4.63;;;4.20;;
17985;SDS011;9118;48.122;11.546;2023-07-16T06:28:47;6.43;;;4.70;;
17985;SDS011;9118;48.122;11.546;2023-07-16T06:31:15;5.18;;;4.47;;
17985;SDS011;9118;48.122;11.546;2023-07-16T06:33:42;5.47;;;4.50;;
17985;SDS011;9118;48.122;11.546;2023-07-16T06:36:11;9.68;;;6.40;;
17985;SDS011;9118;48.122;11.546;2023-07-16T06:38:40;5.63;;;4.20;;
17985;SDS011;9118;48.122;11.546;2023-07-16T06:41:07;4.78;;;3.88;;
17985;SDS011;9118;48.122;11.546;2023-07-16T06:43:34;4.28;;;3.95;;
17985;SDS011;9118;48.122;11.546;2023-07-16T06:46:01;5.18;;;4.22;;
17985;SDS011;9118;48.122;11.546;2023-07-16T06:48:28;4.38;;;3.97;;
17985;SDS011;9118;48.122;11.546;2023-07-16T06:50:55;5.07;;;3.80;;
17985;SDS011;9118;48.122;11.546;2023-07-16T06:53:23;4.55;;;3.92;;
17985;SDS011;9118;48.122;11.546;2023-07-16T06:55:51;3.58;;;3.13;;
17985;SDS011;9118;48.122;11.546;2023-07-16T06:58:18;3.17;;;2.88;;
17985;SDS011;9118;48.122;11.546;2023-07-16T07:00:45;2.90;;;2.70;;
17985;SDS011;9118;48.122;11.546;2023-07-16T07:03:12;3.85;;;2.97;;
17985;SDS011;9118;48.122;11.546;2023-07-16T07:05:40;2.40;;;2.30;;
17985;SDS011;9118;48.122;11.546;2023-07-16T07:08:07;2.58;;;2.38;;
17985;SDS011;9118;48.122;11.546;2023-07-16T07:10:34;2.50;;;2.30;;
17985;SDS011;9118;48.122;11.546;2023-07-16T07:13:04;2.85;;;2.45;;
17985;SDS011;9118;48.122;11.546;2023-07-16T07:15:31;2.40;;;2.20;;
17985;SDS011;9118;48.122;11.546;2023-07-16T07:17:58;2.45;;;2.25;;
17985;SDS011;9118;48.122;11.546;2023-07-16T07:20:25;2.63;;;2.13;;
17985;SDS011;9118;48.122;11.546;2023-07-16T07:22:52;2.85;;;2.42;;
17985;SDS011;9118;48.122;11.546;2023-07-16T07:25:19;2.67;;;2.45;;
17985;SDS011;9118;48.122;11.546;2023-07-16T07:27:46;2.63;;;2.40;;
17985;SDS011;9118;48.122;11.546;2023-07-16T07:30:15;2.25;;;2.08;;
17985;SDS011;9118;48.122;11.546;2023-07-16T07:32:41;2.60;;;2.40;;
17985;SDS011;9118;48.122;11.546;2023-07-16T07:35:09;3.00;;;2.70;;
17985;SDS011;9118;48.122;11.546;2023-07-16T07:37:36;2.53;;;2.33;;
17985;SDS011;9118;48.122;11.546;2023-07-16T07:40:03;2.40;;;2.30;;
17985;SDS011;9118;48.122;11.546;2023-07-16T07:42:34;2.70;;;2.22;;
17985;SDS011;9118;48.122;11.546;2023-07-16T07:45:01;5.25;;;3.15;;
17985;SDS011;9118;48.122;11.546;2023-07-16T07:47:31;2.78;;;2.40;;
17985;SDS011;9118;48.122;11.546;2023-07-16T07:49:59;3.80;;;2.67;;
17985;SDS011;9118;48.122;11.546;2023-07-16T07:52:27;3.30;;;2.60;;
17985;SDS011;9118;48.122;11.546;2023-07-16T07:54:54;2.63;;;2.28;;
17985;SDS011;9118;48.122;11.546;2023-07-16T07:57:29;2.45;;;2.20;;
17985;SDS011;9118;48.122;11.546;2023-07-16T07:59:56;2.50;;;2.30;;
17985;SDS011;9118;48.122;11.546;2023-07-16T08:02:23;2.05;;;1.95;;
17985;SDS011;9118;48.122;11.546;2023-07-16T08:04:52;2.70;;;2.50;;
17985;SDS011;9118;48.122;11.546;2023-07-16T08:07:20;2.42;;;2.25;;
17985;SDS011;9118;48.122;11.546;2023-07-16T08:09:50;2.33;;;2.13;;
17985;SDS011;9118;48.122;11.546;2023-07-16T08:12:20;3.17;;;2.85;;
17985;SDS011;9118;48.122;11.546;2023-07-16T08:14:48;2.97;;;2.67;;
17985;SDS011;9118;48.122;11.546;2023-07-16T08:17:15;2.30;;;2.17;;
17985;SDS011;9118;48.122;11.546;2023-07-16T08:19:45;2.35;;;2.20;;
17985;SDS011;9118;48.122;11.546;2023-07-16T08:22:14;2.70;;;2.50;;
17985;SDS011;9118;48.122;11.546;2023-07-16T08:24:41;2.65;;;2.45;;
17985;SDS011;9118;48.122;11.546;2023-07-16T08:27:09;2.58;;;2.22;;
17985;SDS011;9118;48.122;11.546;2023-07-16T08:29:36;2.77;;;2.57;;
17985;SDS011;9118;48.122;11.546;2023-07-16T08:32:04;2.50;;;2.30;;
17985;SDS011;9118;48.122;11.546;2023-07-16T08:34:31;3.08;;;2.38;;
17985;SDS011;9118;48.122;11.546;2023-07-16T08:37:00;2.65;;;2.15;;
17985;SDS011;9118;48.122;11.546;2023-07-16T08:39:30;2.25;;;2.15;;
17985;SDS011;9118;48.122;11.546;2023-07-16T08:41:57;3.22;;;2.20;;
17985;SDS011;9118;48.122;11.546;2023-07-16T08:44:26;2.72;;;2.50;;
17985;SDS011;9118;48.122;11.546;2023-07-16T08:46:55;2.10;;;2.00;;
17985;SDS011;9118;48.122;11.546;2023-07-16T08:49:25;2.47;;;2.17;;
17985;SDS011;9118;48.122;11.546;2023-07-16T08:52:02;2.20;;;1.98;;
17985;SDS011;9118;48.122;11.546;2023-07-16T08:54:31;2.40;;;2.20;;
17985;SDS011;9118;48.122;11.546;2023-07-16T08:56:59;3.05;;;2.50;;
17985;SDS011;9118;48.122;11.546;2023-07-16T08:59:27;2.75;;;2.33;;
17985;SDS011;9118;48.122;11.546;2023-07-16T09:01:56;2.30;;;2.10;;
17985;SDS011;9118;48.122;11.546;2023-07-16T09:04:29;2.60;;;2.40;;
17985;SDS011;9118;48.122;11.546;2023-07-16T09:07:05;2.80;;;2.60;;
17985;SDS011;9118;48.122;11.546;2023-07-16T09:09:54;3.75;;;2.60;;
17985;SDS011;9118;48.122;11.546;2023-07-16T09:12:26;3.78;;;2.42;;
17985;SDS011;9118;48.122;11.546;2023-07-16T09:14:54;2.30;;;2.17;;
17985;SDS011;9118;48.122;11.546;2023-07-16T09:17:24;2.55;;;2.35;;
17985;SDS011;9118;48.122;11.546;2023-07-16T09:19:53;2.25;;;2.05;;
17985;SDS011;9118;48.122;11.546;2023-07-16T09:22:22;1.80;;;1.70;;
17985;SDS011;9118;48.122;11.546;2023-07-16T09:24:54;2.03;;;1.90;;
17985;SDS011;9118;48.122;11.546;2023-07-16T09:27:27;2.03;;;1.80;;
17985;SDS011;9118;48.122;11.546;2023-07-16T09:29:56;3.30;;;2.20;;
17985;SDS011;9118;48.122;11.546;2023-07-16T09:32:32;2.75;;;2.25;;
17985;SDS011;9118;48.122;11.546;2023-07-16T09:35:07;2.45;;;2.20;;
17985;SDS011;9118;48.122;11.546;2023-07-16T09:37:35;3.22;;;2.10;;
17985;SDS011;9118;48.122;11.546;2023-07-16T09:40:07;2.13;;;2.00;;
17985;SDS011;9118;48.122;11.546;2023-07-16T09:42:36;2.08;;;1.98;;
17985;SDS011;9118;48.122;11.546;2023-07-16T09:45:05;1.98;;;1.88;;
17985;SDS011;9118;48.122;11.546;2023-07-16T09:47:38;2.40;;;1.83;;
17985;SDS011;9118;48.122;11.546;2023-07-16T09:50:09;2.13;;;2.03;;
17985;SDS011;9118;48.122;11.546;2023-07-16T09:52:41;2.92;;;2.05;;
17985;SDS011;9118;48.122;11.546;2023-07-16T09:55:14;2.30;;;2.20;;
17985;SDS011;9118;48.122;11.546;2023-07-16T09:57:42;2.20;;;2.03;;
17985;SDS011;9118;48.122;11.546;2023-07-16T10:00:10;2.20;;;2.10;;
17985;SDS011;9118;48.122;11.546;2023-07-16T10:02:40;1.90;;;1.80;;
17985;SDS011;9118;48.122;11.546;2023-07-16T10:05:14;2.50;;;2.30;;
17985;SDS011;9118;48.122;11.546;2023-07-16T10:07:42;3.35;;;2.33;;
17985;SDS011;9118;48.122;11.546;2023-07-16T10:10:18;2.10;;;2.00;;
17985;SDS011;9118;48.122;11.546;2023-07-16T10:12:54;2.95;;;2.08;;
17985;SDS011;9118;48.122;11.546;2023-07-16T10:15:24;2.50;;;2.30;;
17985;SDS011;9118;48.122;11.546;2023-07-16T10:17:52;2.42;;;2.25;;
17985;SDS011;9118;48.122;11.546;2023-07-16T10:20:27;2.20;;;2.10;;
17985;SDS011;9118;48.122;11.546;2023-07-16T10:22:55;2.72;;;2.40;;
17985;SDS011;9118;48.122;11.546;2023-07-16T10:25:25;2.38;;;2.17;;
17985;SDS011;9118;48.122;11.546;2023-07-16T10:27:54;2.38;;;2.17;;
17985;SDS011;9118;48.122;11.546;2023-07-16T10:30:21;2.80;;;2.10;;
17985;SDS011;9118;48.122;11.546;2023-07-16T10:32:50;2.10;;;2.00;;
17985;SDS011;9118;48.122;11.546;2023-07-16T10:35:18;2.60;;;2.40;;
17985;SDS011;9118;48.122;11.546;2023-07-16T10:37:47;2.25;;;2.05;;
17985;SDS011;9118;48.122;11.546;2023-07-16T10:40:15;2.30;;;2.20;;
17985;SDS011;9118;48.122;11.546;2023-07-16T10:42:44;3.60;;;2.58;;
17985;SDS011;9118;48.122;11.546;2023-07-16T10:45:12;2.58;;;2.38;;
17985;SDS011;9118;48.122;11.546;2023-07-16T10:47:50;10.98;;;2.40;;
17985;SDS011;9118;48.122;11.546;2023-07-16T10:50:21;2.60;;;2.40;;
17985;SDS011;9118;48.122;11.546;2023-07-16T10:52:50;3.38;;;2.55;;
17985;SDS011;9118;48.122;11.546;2023-07-16T10:55:18;2.97;;;2.78;;
17985;SDS011;9118;48.122;11.546;2023-07-16T10:57:48;3.20;;;2.90;;
17985;SDS011;9118;48.122;11.546;2023-07-16T11:00:16;2.67;;;2.47;;
17985;SDS011;9118;48.122;11.546;2023-07-16T11:02:43;2.45;;;2.15;;
17985;SDS011;9118;48.122;11.546;2023-07-16T11:05:12;2.50;;;2.30;;
17985;SDS011;9118;48.122;11.546;2023-07-16T11:07:42;2.50;;;2.30;;
17985;SDS011;9118;48.122;11.546;2023-07-16T11:10:10;2.30;;;2.10;;
17985;SDS011;9118;48.122;11.546;2023-07-16T11:12:38;2.70;;;2.50;;
17985;SDS011;9118;48.122;11.546;2023-07-16T11:15:07;4.10;;;3.05;;
17985;SDS011;9118;48.122;11.546;2023-07-16T11:17:36;3.08;;;2.88;;
17985;SDS011;9118;48.122;11.546;2023-07-16T11:20:05;3.03;;;2.78;;
17985;SDS011;9118;48.122;11.546;2023-07-16T11:22:36;3.83;;;3.45;;
17985;SDS011;9118;48.122;11.546;2023-07-16T11:25:10;2.60;;;2.40;;
17985;SDS011;9118;48.122;11.546;2023-07-16T11:27:40;2.22;;;2.13;;
17985;SDS011;9118;48.122;11.546;2023-07-16T11:30:10;2.90;;;2.50;;
17985;SDS011;9118;48.122;11.546;2023-07-16T11:32:41;2.92;;;2.50;;
17985;SDS011;9118;48.122;11.546;2023-07-16T11:35:10;3.97;;;3.13;;
17985;SDS011;9118;48.122;11.546;2023-07-16T11:37:41;3.00;;;2.80;;
17985;SDS011;9118;48.122;11.546;2023-07-16T11:40:09;2.28;;;2.17;;
17985;SDS011;9118;48.122;11.546;2023-07-16T11:42:43;2.40;;;2.30;;
17985;SDS011;9118;48.122;11.546;2023-07-16T11:45:19;2.80;;;2.60;;
17985;SDS011;9118;48.122;11.546;2023-07-16T11:47:48;2.55;;;2.38;;
17985;SDS011;9118;48.122;11.546;2023-07-16T11:50:15;2.97;;;2.78;;
17985;SDS011;9118;48.122;11.546;2023-07-16T11:52:42;2.92;;;2.70;;
17985;SDS011;9118;48.122;11.546;2023-07-16T11:55:18;2.88;;;2.67;;
17985;SDS011;9118;48.122;11.546;2023-07-16T11:57:45;3.67;;;3.38;;
17985;SDS011;9118;48.122;11.546;2023-07-16T12:00:16;4.28;;;2.70;;
17985;SDS011;9118;48.122;11.546;2023-07-16T12:02:45;2.67;;;2.47;;
17985;SDS011;9118;48.122;11.546;2023-07-16T12:05:16;2.75;;;2.55;;
17985;SDS011;9118;48.122;11.546;2023-07-16T12:07:44;3.10;;;2.80;;
17985;SDS011;9118;48.122;11.546;2023-07-16T12:10:11;3.15;;;2.95;;
17985;SDS011;9118;48.122;11.546;2023-07-16T12:12:38;2.85;;;2.65;;
17985;SDS011;9118;48.122;11.546;2023-07-16T12:15:06;3.10;;;2.90;;
17985;SDS011;9118;48.122;11.546;2023-07-16T12:17:37;2.92;;;2.72;;
17985;SDS011;9118;48.122;11.546;2023-07-16T12:20:07;3.17;;;2.97;;
17985;SDS011;9118;48.122;11.546;2023-07-16T12:22:35;3.10;;;2.65;;
17985;SDS011;9118;48.122;11.546;2023-07-16T12:25:05;2.78;;;2.65;;
17985;SDS011;9118;48.122;11.546;2023-07-16T12:27:32;4.10;;;2.65;;
17985;SDS011;9118;48.122;11.546;2023-07-16T12:29:59;3.92;;;2.78;;
17985;SDS011;9118;48.122;11.546;2023-07-16T12:32:26;2.80;;;2.60;;
17985;SDS011;9118;48.122;11.546;2023-07-16T12:34:53;2.97;;;2.78;;
17985;SDS011;9118;48.122;11.546;2023-07-16T12:37:24;3.70;;;2.90;;
17985;SDS011;9118;48.122;11.546;2023-07-16T12:39:51;5.43;;;3.00;;
17985;SDS011;9118;48.122;11.546;2023-07-16T12:42:18;3.55;;;3.20;;
17985;SDS011;9118;48.122;11.546;2023-07-16T12:44:45;3.70;;;3.10;;
17985;SDS011;9118;48.122;11.546;2023-07-16T12:47:12;3.15;;;2.95;;
17985;SDS011;9118;48.122;11.546;2023-07-16T12:49:39;2.97;;;2.78;;
17985;SDS011;9118;48.122;11.546;2023-07-16T12:52:07;2.83;;;2.63;;
17985;SDS011;9118;48.122;11.546;2023-07-16T12:54:36;3.10;;;2.80;;
17985;SDS011;9118;48.122;11.546;2023-07-16T12:57:04;3.42;;;3.13;;
17985;SDS011;9118;48.122;11.546;2023-07-16T12:59:31;3.45;;;3.15;;
17985;SDS011;9118;48.122;11.546;2023-07-16T13:01:58;3.10;;;2.80;;
17985;SDS011;9118;48.122;11.546;2023-07-16T13:04:26;3.67;;;2.80;;
17985;SDS011;9118;48.122;11.546;2023-07-16T13:06:53;3.58;;;3.28;;
17985;SDS011;9118;48.122;11.546;2023-07-16T13:09:20;2.72;;;2.53;;
17985;SDS011;9118;48.122;11.546;2023-07-16T13:11:49;3.08;;;2.88;;
17985;SDS011;9118;48.122;11.546;2023-07-16T13:14:16;3.42;;;2.97;;
17985;SDS011;9118;48.122;11.546;2023-07-16T13:16:44;3.55;;;3.33;;
17985;SDS011;9118;48.122;11.546;2023-07-16T13:19:14;3.70;;;3.40;;
17985;SDS011;9118;48.122;11.546;2023-07-16T13:21:41;3.55;;;3.30;;
17985;SDS011;9118;48.122;11.546;2023-07-16T13:24:08;4.28;;;3.15;;
17985;SDS011;9118;48.122;11.546;2023-07-16T13:26:35;3.30;;;3.00;;
17985;SDS011;9118;48.122;11.546;2023-07-16T13:29:05;3.20;;;2.90;;
17985;SDS011;9118;48.122;11.546;2023-07-16T13:31:32;4.05;;;3.10;;
17985;SDS011;9118;48.122;11.546;2023-07-16T13:33:59;3.25;;;3.00;;
17985;SDS011;9118;48.122;11.546;2023-07-16T13:36:27;3.75;;;3.45;;
17985;SDS011;9118;48.122;11.546;2023-07-16T13:38:54;3.90;;;3.58;;
17985;SDS011;9118;48.122;11.546;2023-07-16T13:41:21;3.67;;;2.97;;
17985;SDS011;9118;48.122;11.546;2023-07-16T13:43:48;3.38;;;3.05;;
17985;SDS011;9118;48.122;11.546;2023-07-16T13:46:16;3.38;;;3.13;;
17985;SDS011;9118;48.122;11.546;2023-07-16T13:48:44;3.40;;;3.20;;
17985;SDS011;9118;48.122;11.546;2023-07-16T13:51:11;3.50;;;3.30;;
17985;SDS011;9118;48.122;11.546;2023-07-16T13:53:39;5.43;;;4.43;;
17985;SDS011;9118;48.122;11.546;2023-07-16T13:56:06;3.40;;;3.20;;
17985;SDS011;9118;48.122;11.546;2023-07-16T13:58:34;3.28;;;3.08;;
17985;SDS011;9118;48.122;11.546;2023-07-16T14:01:01;3.13;;;2.92;;
17985;SDS011;9118;48.122;11.546;2023-07-16T14:03:30;3.35;;;3.08;;
17985;SDS011;9118;48.122;11.546;2023-07-16T14:05:57;3.30;;;3.00;;
17985;SDS011;9118;48.122;11.546;2023-07-16T14:08:24;3.75;;;3.45;;
17985;SDS011;9118;48.122;11.546;2023-07-16T14:10:53;3.53;;;3.22;;
17985;SDS011;9118;48.122;11.546;2023-07-16T14:13:20;3.40;;;3.10;;
17985;SDS011;9118;48.122;11.546;2023-07-16T14:15:47;5.53;;;5.03;;
17985;SDS011;9118;48.122;11.546;2023-07-16T14:18:15;3.25;;;3.05;;
17985;SDS011;9118;48.122;11.546;2023-07-16T14:20:45;3.97;;;3.67;;
17985;SDS011;9118;48.122;11.546;2023-07-16T14:23:12;3.60;;;3.30;;
17985;SDS011;9118;48.122;11.546;2023-07-16T14:25:40;4.00;;;3.70;;
17985;SDS011;9118;48.122;11.546;2023-07-16T14:28:10;3.45;;;3.15;;
17985;SDS011;9118;48.122;11.546;2023-07-16T14:30:37;3.70;;;3.30;;
17985;SDS011;9118;48.122;11.546;2023-07-16T14:33:06;5.30;;;4.80;;
17985;SDS011;9118;48.122;11.546;2023-07-16T14:35:33;3.97;;;3.60;;
17985;SDS011;9118;48.122;11.546;2023-07-16T14:38:02;3.95;;;3.65;;
17985;SDS011;9118;48.122;11.546;2023-07-16T14:40:30;4.18;;;3.83;;
17985;SDS011;9118;48.122;11.546;2023-07-16T14:42:57;3.65;;;3.35;;
17985;SDS011;9118;48.122;11.546;2023-07-16T14:45:24;4.55;;;3.70;;
17985;SDS011;9118;48.122;11.546;2023-07-16T14:47:51;3.63;;;3.40;;
17985;SDS011;9118;48.122;11.546;2023-07-16T14:50:18;5.45;;;3.50;;
17985;SDS011;9118;48.122;11.546;2023-07-16T14:52:45;4.03;;;3.13;;